Imperial, Nebraska
Current Conditions -  °F | °C
As of 6:53 PM on Saturday 22 Nov 2014 (Local Time) from KIML Reporting Station
Clear Clear  
Wind Chill: 43°   Ceiling: Unl
Heat Index: 43°   Visibility: 10mi
Dew Point: 15°   Wind: 3mph
Humidity: 32%   Direction: 330°NNW
Pressure: 29.51"   Gusts: NA
Location:  40.52°N, 101.64°W
Report Text: KIML 230153Z AUTO 33003KT 10SM CLR 06/M09 A2951 RMK AO2 SLP014 T00611094
Loading
Personal Weather Stations






























Interactive Weather Map New forecast layout! Learn more

10-Day Weather Forecast

Advertisements
Track Severe Weather on mobile